Time;durP1;ratioP1;P1;durP2;ratioP2;P2;SDS_P1;SDS_P2;PMS_P1;PMS_P2;Temp;Humidity;BMP_temperature;BMP_pressure;BME280_temperature;BME280_humidity;BME280_pressure;Samples;Min_cycle;Max_cycle;Signal;HPM_P1;HPM_P2
2024/01/08 00:02:00;;;;;;;1.50;0.40;;;;;;;-4.97;68.26;102331.63;5054877;28;20458;-65
2024/01/08 00:04:28;;;;;;;2.10;1.37;;;;;;;-4.96;69.85;102334.09;5054225;28;20860;-65
2024/01/08 00:06:55;;;;;;;1.50;0.40;;;;;;;-4.90;69.85;102328.19;5054499;28;20446;-66
2024/01/08 00:09:21;;;;;;;1.50;0.30;;;;;;;-4.91;70.03;102331.84;5054856;28;20541;-66
2024/01/08 00:11:48;;;;;;;1.60;0.40;;;;;;;-4.94;70.42;102332.13;5054084;28;20458;-66
2024/01/08 00:14:15;;;;;;;1.50;0.30;;;;;;;-5.12;67.67;102331.34;5054440;28;20529;-66
2024/01/08 00:16:41;;;;;;;1.87;0.90;;;;;;;-5.10;70.54;102335.50;5054285;28;20833;-66
2024/01/08 00:19:08;;;;;;;1.50;0.40;;;;;;;-5.08;69.72;102335.34;5054034;28;20445;-66
2024/01/08 00:21:36;;;;;;;1.50;0.30;;;;;;;-5.14;70.34;102335.94;5054260;28;20865;-66
2024/01/08 00:24:03;;;;;;;1.53;0.40;;;;;;;-5.14;70.56;102334.13;5054260;28;20929;-66
2024/01/08 00:26:30;;;;;;;1.50;0.40;;;;;;;-5.14;71.72;102330.66;5054586;28;20492;-66
2024/01/08 00:28:58;;;;;;;1.50;0.40;;;;;;;-5.12;69.99;102329.53;5054440;28;20442;-66
2024/01/08 00:31:25;;;;;;;2.00;1.27;;;;;;;-5.12;69.52;102331.34;5053785;28;20977;-66
2024/01/08 00:33:52;;;;;;;1.50;0.37;;;;;;;-5.17;70.28;102329.19;5053465;28;20438;-66
2024/01/08 00:36:18;;;;;;;1.50;0.40;;;;;;;-5.22;69.59;102330.63;5053619;28;20525;-66
2024/01/08 00:38:46;;;;;;;1.50;0.40;;;;;;;-5.20;69.66;102333.94;5053653;28;20446;-66
2024/01/08 00:41:13;;;;;;;1.50;0.40;;;;;;;-5.24;69.59;102335.22;5053997;28;20529;-66
2024/01/08 00:43:39;;;;;;;1.50;0.30;;;;;;;-5.35;69.58;102345.06;5053977;28;20954;-66
2024/01/08 00:46:06;;;;;;;1.57;0.40;;;;;;;-5.44;68.90;102340.69;5053448;28;20869;-66
2024/01/08 00:48:33;;;;;;;1.60;0.47;;;;;;;-5.49;69.90;102344.75;5053369;28;20504;-66
2024/01/08 00:50:59;;;;;;;2.07;1.33;;;;;;;-5.46;71.04;102340.00;5053547;28;20938;-66
2024/01/08 00:53:26;;;;;;;3.03;0.90;;;;;;;-5.33;71.65;102339.63;5053769;28;20460;-66
2024/01/08 00:55:54;;;;;;;1.60;0.47;;;;;;;-5.35;70.43;102345.06;5053951;28;20525;-66
2024/01/08 00:58:20;;;;;;;1.57;0.33;;;;;;;-5.31;70.83;102342.94;5053325;28;20476;-66
2024/01/08 01:00:47;;;;;;;2.43;0.70;;;;;;;-5.24;71.82;102340.50;5053640;28;20525;-66
2024/01/08 01:03:14;;;;;;;1.50;0.40;;;;;;;-5.28;70.09;102357.63;5053509;28;21016;-66
2024/01/08 01:05:40;;;;;;;1.50;0.40;;;;;;;-5.35;69.07;102354.78;5053274;28;20539;-66
2024/01/08 01:08:07;;;;;;;1.57;0.40;;;;;;;-5.43;71.34;102363.47;5053715;28;20431;-66
2024/01/08 01:10:34;;;;;;;1.50;0.40;;;;;;;-5.30;71.48;102359.63;5053435;28;20581;-66
2024/01/08 01:13:02;;;;;;;1.53;0.40;;;;;;;-5.30;72.34;102355.16;5053726;28;20458;-66
2024/01/08 01:15:28;;;;;;;1.50;0.40;;;;;;;-5.42;71.53;102357.19;5053101;28;20442;-68
2024/01/08 01:17:55;;;;;;;1.50;0.37;;;;;;;-5.33;72.12;102358.91;5053136;28;20476;-65
2024/01/08 01:20:22;;;;;;;1.50;0.40;;;;;;;-5.32;71.21;102365.84;5053514;28;20813;-69
2024/01/08 01:22:49;;;;;;;2.73;1.47;;;;;;;-5.32;71.29;102363.22;5053472;28;20458;-67
2024/01/08 01:25:15;;;;;;;1.50;0.40;;;;;;;-5.27;70.35;102367.22;5053603;28;20481;-66
2024/01/08 01:27:42;;;;;;;1.53;0.30;;;;;;;-5.25;69.82;102368.72;5053322;28;20511;-65
2024/01/08 01:30:11;;;;;;;1.50;0.30;;;;;;;-5.25;70.51;102360.81;5053035;28;20491;-66
2024/01/08 01:32:38;;;;;;;1.50;0.40;;;;;;;-5.24;70.75;102366.91;5053264;28;20514;-66
2024/01/08 01:35:06;;;;;;;1.50;0.30;;;;;;;-5.16;71.05;102359.06;5053667;28;20199;-66
2024/01/08 01:37:32;;;;;;;1.60;0.47;;;;;;;-5.23;69.39;102358.00;5053173;28;20467;-66
2024/01/08 01:39:59;;;;;;;2.27;1.40;;;;;;;-5.19;69.87;102356.72;5053838;28;20422;-67
2024/01/08 01:42:26;;;;;;;1.50;0.30;;;;;;;-5.26;70.03;102367.06;5053771;28;20537;-66
2024/01/08 01:44:52;;;;;;;1.50;0.40;;;;;;;-5.24;70.35;102362.47;5053840;28;20478;-66
2024/01/08 01:47:21;;;;;;;1.50;0.40;;;;;;;-5.25;71.02;102370.53;5056553;28;20477;-66
2024/01/08 01:49:50;;;;;;;1.50;0.40;;;;;;;-5.25;70.89;102381.09;5056899;28;20529;-66
2024/01/08 01:52:16;;;;;;;1.53;0.37;;;;;;;-5.22;71.22;102379.00;5057494;28;20461;-66
2024/01/08 01:54:44;;;;;;;1.50;0.40;;;;;;;-5.25;71.31;102378.47;5057082;28;20436;-66
2024/01/08 01:57:11;;;;;;;1.50;0.30;;;;;;;-5.25;72.05;102381.94;5057032;28;20536;-66
2024/01/08 01:59:38;;;;;;;1.50;0.30;;;;;;;-5.33;68.99;102374.75;5057800;28;20442;-66
2024/01/08 02:02:07;;;;;;;1.50;0.40;;;;;;;-5.36;70.40;102374.22;5056786;28;20899;-66
2024/01/08 02:04:35;;;;;;;1.50;0.40;;;;;;;-5.33;70.17;102371.28;5056631;28;20485;-66
2024/01/08 02:07:05;;;;;;;1.50;0.30;;;;;;;-5.32;70.63;102371.13;5057231;28;20545;-67
2024/01/08 02:09:32;;;;;;;1.50;0.40;;;;;;;-5.31;69.94;102377.28;5056916;28;20524;-66
2024/01/08 02:11:59;;;;;;;1.70;0.60;;;;;;;-5.32;69.06;102378.22;5056974;28;20454;-66
2024/01/08 02:14:26;;;;;;;1.60;0.40;;;;;;;-5.23;70.08;102382.59;5056343;28;20521;-66
2024/01/08 02:16:53;;;;;;;1.50;0.40;;;;;;;-5.37;66.92;102383.97;5057267;28;20525;-66
2024/01/08 02:19:19;;;;;;;1.63;0.57;;;;;;;-5.36;69.29;102382.16;5057011;28;20442;-66
2024/01/08 02:21:49;;;;;;;1.60;0.57;;;;;;;-5.42;68.54;102388.88;5056689;28;20496;-66
2024/01/08 02:24:17;;;;;;;1.50;0.30;;;;;;;-5.39;68.79;102388.59;5056406;28;20922;-66
2024/01/08 02:26:43;;;;;;;4.00;0.85;;;;;;;-5.42;69.29;102396.78;5056472;28;20438;-66
2024/01/08 02:29:10;;;;;;;1.50;0.40;;;;;;;-5.41;69.52;102387.06;5056121;28;20207;-66
2024/01/08 02:31:37;;;;;;;1.50;0.30;;;;;;;-5.39;69.01;102401.78;5056268;28;20464;-67
2024/01/08 02:34:04;;;;;;;1.50;0.30;;;;;;;-5.38;67.39;102407.88;5055967;28;20442;-66
2024/01/08 02:36:30;;;;;;;2.70;0.97;;;;;;;-5.37;67.68;102406.91;5056463;28;20449;-66
2024/01/08 02:38:57;;;;;;;2.03;0.77;;;;;;;-5.42;67.40;102412.63;5056389;28;20474;-66
2024/01/08 02:41:25;;;;;;;1.97;0.83;;;;;;;-5.41;67.57;102408.19;5056402;28;20462;-66
2024/01/08 02:43:51;;;;;;;1.50;0.40;;;;;;;-5.38;68.48;102419.28;5056604;28;20477;-67
2024/01/08 02:46:18;;;;;;;1.50;0.30;;;;;;;-5.39;68.29;102417.63;5055884;28;20926;-66
2024/01/08 02:48:45;;;;;;;1.50;0.40;;;;;;;-5.40;68.45;102410.69;5056268;28;20503;-68
2024/01/08 02:51:11;;;;;;;1.50;0.30;;;;;;;-5.39;68.50;102419.44;5056015;28;20446;-66
2024/01/08 02:53:38;;;;;;;1.50;0.30;;;;;;;-5.34;68.85;102420.63;5055896;28;20446;-67
2024/01/08 02:56:06;;;;;;;1.50;0.30;;;;;;;-5.28;68.98;102427.13;5056372;28;20492;-67
2024/01/08 02:58:34;;;;;;;3.00;1.33;;;;;;;-5.29;68.77;102419.34;5055154;28;20470;-67
2024/01/08 03:01:00;;;;;;;1.50;0.30;;;;;;;-5.39;67.65;102419.44;5055502;28;20488;-67
2024/01/08 03:03:27;;;;;;;1.50;0.30;;;;;;;-5.33;69.28;102426.75;5055611;28;20450;-66
2024/01/08 03:05:54;;;;;;;1.58;0.40;;;;;;;-5.38;68.26;102432.47;5055766;28;20540;-67
2024/01/08 03:08:21;;;;;;;1.97;0.80;;;;;;;-5.47;67.58;102435.19;5055698;28;20203;-67
2024/01/08 03:10:47;;;;;;;1.50;0.40;;;;;;;-5.48;68.04;102436.19;5055338;28;20533;-66
2024/01/08 03:13:14;;;;;;;1.60;0.40;;;;;;;-5.40;68.54;102439.72;5055411;28;20501;-66
2024/01/08 03:15:42;;;;;;;1.70;0.73;;;;;;;-5.33;69.00;102443.41;5055643;28;20438;-66
2024/01/08 03:18:09;;;;;;;1.50;0.40;;;;;;;-5.37;67.98;102443.88;5055192;28;20930;-66
2024/01/08 03:20:35;;;;;;;1.80;0.70;;;;;;;-5.38;68.50;102445.69;5055454;28;20204;-66
2024/01/08 03:23:02;;;;;;;1.50;0.30;;;;;;;-5.35;68.98;102450.66;5055443;28;20541;-66
2024/01/08 03:25:28;;;;;;;1.50;0.40;;;;;;;-5.36;68.17;102451.66;5055394;28;20509;-66
2024/01/08 03:27:55;;;;;;;1.50;0.30;;;;;;;-5.43;68.16;102455.88;5055374;28;20945;-66
2024/01/08 03:30:22;;;;;;;2.87;2.50;;;;;;;-5.47;68.07;102457.13;5054961;28;20470;-66
2024/01/08 03:32:50;;;;;;;5.00;1.13;;;;;;;-5.39;69.17;102457.22;5055120;28;20466;-66
2024/01/08 03:35:18;;;;;;;1.57;0.40;;;;;;;-5.41;68.17;102460.97;5055137;28;20446;-66
2024/01/08 03:37:45;;;;;;;1.50;0.30;;;;;;;-5.37;68.81;102459.72;5054696;28;20478;-66
2024/01/08 03:40:12;;;;;;;1.50;0.30;;;;;;;-5.44;69.27;102462.13;5055045;28;20977;-66
2024/01/08 03:42:39;;;;;;;1.50;0.40;;;;;;;-5.49;69.33;102469.66;5054980;28;20893;-66
2024/01/08 03:45:06;;;;;;;1.50;0.40;;;;;;;-5.63;68.64;102467.50;5054583;28;20474;-66
2024/01/08 03:47:33;;;;;;;1.50;0.40;;;;;;;-5.55;69.21;102474.69;5054965;28;20521;-66
2024/01/08 03:50:00;;;;;;;1.50;0.30;;;;;;;-5.51;69.90;102482.16;5055308;28;20229;-66
2024/01/08 03:52:27;;;;;;;1.50;0.30;;;;;;;-5.45;69.22;102483.38;5055105;28;20871;-66
2024/01/08 03:54:54;;;;;;;2.00;0.53;;;;;;;-5.43;69.45;102476.97;5054417;28;20892;-66
2024/01/08 03:57:20;;;;;;;1.53;0.40;;;;;;;-5.38;69.66;102481.81;5055114;28;20440;-66
2024/01/08 03:59:47;;;;;;;1.50;0.30;;;;;;;-5.44;69.24;102483.25;5054428;28;20497;-66
2024/01/08 04:02:14;;;;;;;1.50;0.40;;;;;;;-5.42;70.22;102485.72;5054596;28;20516;-66
2024/01/08 04:04:42;;;;;;;1.60;0.77;;;;;;;-5.37;70.23;102494.84;5054522;28;20442;-66
2024/01/08 04:07:10;;;;;;;7.43;1.13;;;;;;;-5.40;69.72;102500.47;5054285;28;20930;-66
2024/01/08 04:09:37;;;;;;;1.90;0.93;;;;;;;-5.42;69.76;102507.69;5054534;28;20438;-65
2024/01/08 04:12:05;;;;;;;1.50;0.30;;;;;;;-5.37;69.68;102505.41;5054487;28;20454;-71
2024/01/08 04:14:31;;;;;;;1.50;0.30;;;;;;;-5.57;67.54;102501.25;5054400;28;20439;-67
2024/01/08 04:16:58;;;;;;;1.50;0.30;;;;;;;-5.64;69.30;102505.44;5054294;28;20832;-67
2024/01/08 04:19:25;;;;;;;4.00;0.97;;;;;;;-5.53;71.03;102507.03;5054272;28;20290;-67
2024/01/08 04:21:51;;;;;;;1.50;0.40;;;;;;;-5.47;70.17;102507.28;5053848;28;20462;-67
2024/01/08 04:24:19;;;;;;;1.50;0.30;;;;;;;-5.44;70.62;102509.66;5054662;28;20496;-67
2024/01/08 04:26:46;;;;;;;1.50;0.40;;;;;;;-5.40;70.79;102511.03;5054073;28;20585;-67
2024/01/08 04:29:13;;;;;;;1.50;0.40;;;;;;;-5.41;70.97;102517.25;5054053;28;20848;-67
2024/01/08 04:31:39;;;;;;;1.50;0.30;;;;;;;-5.39;70.68;102522.41;5054511;28;20454;-67
2024/01/08 04:34:06;;;;;;;1.60;0.53;;;;;;;-5.41;70.10;102527.81;5054691;28;20521;-67
2024/01/08 04:36:33;;;;;;;1.70;0.60;;;;;;;-5.42;70.36;102528.81;5053801;28;20466;-67
2024/01/08 04:38:59;;;;;;;1.80;0.80;;;;;;;-5.42;71.12;102520.06;5053810;28;20458;-67
2024/01/08 04:41:27;;;;;;;1.50;0.30;;;;;;;-5.39;70.98;102523.22;5053788;28;20810;-67
2024/01/08 04:43:54;;;;;;;1.50;0.30;;;;;;;-5.45;70.03;102528.25;5054075;28;20438;-67
2024/01/08 04:46:20;;;;;;;1.60;0.70;;;;;;;-5.43;70.19;102532.44;5053429;28;20482;-67
2024/01/08 04:48:47;;;;;;;1.47;0.30;;;;;;;-5.42;70.94;102531.44;5054319;28;20521;-67
2024/01/08 04:51:22;;;;;;;1.50;0.40;;;;;;;-5.42;70.51;102539.38;5053692;28;20496;-67
2024/01/08 04:53:49;;;;;;;1.60;0.70;;;;;;;-5.43;70.60;102537.72;5053787;28;20905;-67
2024/01/08 04:56:20;;;;;;;1.50;0.50;;;;;;;-5.44;69.67;102545.78;5053850;28;20458;-67
2024/01/08 04:58:48;;;;;;;1.50;0.30;;;;;;;-5.49;70.27;102538.31;5053757;28;20425;-67
2024/01/08 05:01:14;;;;;;;1.50;0.30;;;;;;;-5.48;69.56;102550.53;5053235;28;20537;-67
2024/01/08 05:03:43;;;;;;;1.50;0.40;;;;;;;-5.44;69.98;102567.72;5054057;28;20541;-67
2024/01/08 05:06:10;;;;;;;1.50;0.30;;;;;;;-5.48;70.57;102554.97;5054000;28;20486;-67
2024/01/08 05:08:37;;;;;;;1.63;0.60;;;;;;;-5.52;70.93;102553.59;5053555;28;20517;-67
2024/01/08 05:11:05;;;;;;;1.50;0.40;;;;;;;-5.51;71.08;102549.97;5053461;28;20470;-67
2024/01/08 05:13:31;;;;;;;1.50;0.30;;;;;;;-5.48;70.61;102550.53;5053409;28;20966;-67
2024/01/08 05:15:59;;;;;;;1.50;0.30;;;;;;;-5.49;70.85;102562.06;5054123;28;20434;-67
2024/01/08 05:18:25;;;;;;;1.70;0.67;;;;;;;-5.52;70.77;102557.06;5053190;28;20966;-67
2024/01/08 05:20:52;;;;;;;1.50;0.50;;;;;;;-5.47;71.80;102562.75;5052860;28;20488;-67
2024/01/08 05:23:19;;;;;;;1.50;0.40;;;;;;;-5.49;71.53;102564.72;5053342;28;20541;-67
2024/01/08 05:25:45;;;;;;;1.53;0.40;;;;;;;-5.42;72.06;102563.13;5053289;28;20994;-67
2024/01/08 05:28:12;;;;;;;1.50;0.30;;;;;;;-5.44;73.04;102559.81;5053096;28;20500;-67
2024/01/08 05:30:38;;;;;;;1.70;0.70;;;;;;;-5.50;72.18;102562.19;5053264;28;20449;-67
2024/01/08 05:33:06;;;;;;;1.50;0.40;;;;;;;-5.54;72.20;102564.28;5053203;28;20508;-67
2024/01/08 05:35:33;;;;;;;3.00;1.23;;;;;;;-5.59;71.92;102559.44;5053243;28;20504;-67
2024/01/08 05:38:01;;;;;;;1.50;0.40;;;;;;;-5.63;72.04;102557.25;5052875;28;20462;-67
2024/01/08 05:40:28;;;;;;;1.50;0.40;;;;;;;-5.62;72.17;102569.50;5052981;28;20438;-67
2024/01/08 05:42:55;;;;;;;2.70;1.77;;;;;;;-5.61;72.96;102566.69;5053201;28;20783;-67
2024/01/08 05:45:21;;;;;;;1.50;0.30;;;;;;;-5.58;72.82;102568.19;5053061;28;20473;-67
2024/01/08 05:47:48;;;;;;;1.50;0.30;;;;;;;-5.60;72.16;102575.44;5052863;28;20491;-67
2024/01/08 05:50:17;;;;;;;1.50;0.50;;;;;;;-5.65;71.13;102564.50;5052698;28;20442;-67
2024/01/08 05:52:44;;;;;;;1.50;0.40;;;;;;;-5.71;72.55;102571.19;5052378;28;20461;-67
2024/01/08 05:55:14;;;;;;;1.50;0.30;;;;;;;-5.67;72.72;102577.81;5053088;28;20438;-67
2024/01/08 05:57:41;;;;;;;1.50;0.40;;;;;;;-5.61;72.56;102586.97;5052751;28;20525;-67
2024/01/08 06:00:08;;;;;;;1.50;0.30;;;;;;;-5.63;73.49;102581.00;5053107;28;20521;-66
2024/01/08 06:02:35;;;;;;;1.57;0.53;;;;;;;-5.67;74.00;102584.91;5052431;28;20458;-67
2024/01/08 06:05:02;;;;;;;1.50;0.40;;;;;;;-5.70;73.86;102587.84;5052703;28;20473;-67
2024/01/08 06:07:30;;;;;;;1.50;0.37;;;;;;;-5.68;74.04;102583.25;5052378;28;20578;-67
2024/01/08 06:09:56;;;;;;;1.70;0.73;;;;;;;-5.80;72.37;102594.94;5052983;28;20529;-67
2024/01/08 06:12:23;;;;;;;1.77;0.90;;;;;;;-5.78;72.43;102595.66;5052434;28;20458;-67
2024/01/08 06:14:49;;;;;;;5.73;1.60;;;;;;;-5.74;73.57;102608.41;5052604;28;20995;-67
2024/01/08 06:17:17;;;;;;;2.23;1.10;;;;;;;-5.78;73.71;102612.31;5052949;28;20462;-67
2024/01/08 06:19:44;;;;;;;1.50;0.30;;;;;;;-5.75;73.47;102613.84;5052598;28;20848;-67
2024/01/08 06:22:10;;;;;;;1.50;0.30;;;;;;;-5.76;73.78;102602.44;5052824;28;20970;-67
2024/01/08 06:24:38;;;;;;;1.50;0.40;;;;;;;-5.82;73.97;102610.94;5052798;28;20937;-67
2024/01/08 06:27:06;;;;;;;1.50;0.30;;;;;;;-5.74;74.41;102618.13;5053112;28;20490;-67
2024/01/08 06:29:32;;;;;;;1.50;0.47;;;;;;;-5.71;74.20;102613.41;5052380;28;20442;-67
2024/01/08 06:31:59;;;;;;;1.50;0.30;;;;;;;-5.72;73.91;102621.44;5052769;28;20504;-67
2024/01/08 06:34:26;;;;;;;1.50;0.40;;;;;;;-5.79;73.51;102629.13;5055791;28;20469;-67
2024/01/08 06:36:53;;;;;;;1.50;0.40;;;;;;;-5.84;73.83;102626.09;5056571;28;20517;-67
2024/01/08 06:39:19;;;;;;;1.50;0.40;;;;;;;-5.88;75.47;102625.53;5056019;28;20300;-67
2024/01/08 06:41:47;;;;;;;1.50;0.40;;;;;;;-5.81;75.46;102638.13;5055812;28;20521;-67
2024/01/08 06:44:14;;;;;;;1.50;0.40;;;;;;;-5.80;74.85;102631.88;5056202;28;20250;-67
2024/01/08 06:46:41;;;;;;;2.97;1.13;;;;;;;-5.88;74.47;102633.44;5055696;28;20989;-67
2024/01/08 06:49:08;;;;;;;1.70;0.70;;;;;;;-5.87;74.56;102640.38;5056088;28;20474;-67
2024/01/08 06:51:40;;;;;;;1.60;0.70;;;;;;;-5.81;74.74;102644.25;5055774;28;20508;-67
2024/01/08 06:54:07;;;;;;;1.50;0.30;;;;;;;-5.81;74.70;102646.88;5056202;28;20427;-68
2024/01/08 06:56:33;;;;;;;1.73;0.73;;;;;;;-5.82;73.95;102650.50;5056149;28;20434;-68
2024/01/08 06:59:03;;;;;;;4.63;1.35;;;;;;;-5.84;75.10;102649.81;5055656;28;20254;-68
2024/01/08 07:01:30;;;;;;;1.50;0.40;;;;;;;-5.83;74.88;102664.69;5056188;28;20223;-68
2024/01/08 07:03:57;;;;;;;1.50;0.40;;;;;;;-5.84;75.45;102658.56;5055505;28;20922;-68
2024/01/08 07:06:24;;;;;;;2.00;1.13;;;;;;;-5.95;74.87;102652.63;5055683;28;20281;-69
2024/01/08 07:08:50;;;;;;;1.70;0.60;;;;;;;-6.02;74.84;102662.06;5055851;28;20461;-69
2024/01/08 07:11:21;;;;;;;1.50;0.30;;;;;;;-5.95;75.61;102657.91;5055269;28;20463;-69
2024/01/08 07:13:47;;;;;;;1.50;0.30;;;;;;;-5.91;76.07;102665.38;5055845;28;20434;-69
2024/01/08 07:16:15;;;;;;;1.60;0.50;;;;;;;-5.90;76.05;102671.47;5055345;28;20883;-69
2024/01/08 07:18:42;;;;;;;1.50;0.30;;;;;;;-5.87;75.64;102679.94;5055665;28;20517;-69
2024/01/08 07:21:11;;;;;;;1.63;0.73;;;;;;;-5.87;75.81;102679.13;5055342;28;20495;-68
2024/01/08 07:23:38;;;;;;;1.50;0.40;;;;;;;-5.79;76.33;102678.44;5055492;28;20434;-70
2024/01/08 07:26:05;;;;;;;1.50;0.50;;;;;;;-5.80;76.56;102685.47;5055192;28;20483;-70
2024/01/08 07:28:32;;;;;;;1.50;0.40;;;;;;;-5.85;76.06;102688.53;5055326;28;20434;-71
2024/01/08 07:31:00;;;;;;;1.83;0.87;;;;;;;-5.81;76.81;102683.00;5055175;28;20204;-71
2024/01/08 07:33:28;;;;;;;1.50;0.40;;;;;;;-5.84;76.23;102684.97;5055364;28;20487;-69
2024/01/08 07:35:55;;;;;;;1.50;0.30;;;;;;;-5.91;76.11;102689.13;5054913;28;20442;-69
2024/01/08 07:38:22;;;;;;;1.50;0.30;;;;;;;-5.87;77.14;102693.13;5055032;28;20557;-69
2024/01/08 07:40:49;;;;;;;1.50;0.40;;;;;;;-5.84;76.84;102698.16;5055113;28;20534;-69
2024/01/08 07:43:15;;;;;;;1.50;0.40;;;;;;;-5.79;78.10;102699.53;5055039;28;21040;-69
2024/01/08 07:45:42;;;;;;;1.80;0.93;;;;;;;-5.74;78.88;102702.56;5055108;28;20474;-70
2024/01/08 07:48:09;;;;;;;1.50;0.30;;;;;;;-5.71;77.81;102708.41;5055177;28;20438;-70
2024/01/08 07:50:37;;;;;;;1.47;0.40;;;;;;;-5.79;77.39;102700.38;5054913;28;20466;-70
2024/01/08 07:53:04;;;;;;;4.43;0.90;;;;;;;-5.79;79.11;102712.72;5054551;28;20969;-70
2024/01/08 07:55:31;;;;;;;1.50;0.30;;;;;;;-5.85;78.07;102712.28;5054753;28;20442;-70
2024/01/08 07:57:57;;;;;;;2.03;1.07;;;;;;;-5.80;77.74;102716.31;5054742;28;20470;-70
2024/01/08 08:00:25;;;;;;;2.30;0.90;;;;;;;-5.80;77.73;102713.69;5054675;28;20537;-70
2024/01/08 08:02:51;;;;;;;1.50;0.40;;;;;;;-5.85;77.96;102722.00;5054588;28;20462;-70
2024/01/08 08:05:19;;;;;;;2.10;1.30;;;;;;;-5.84;78.10;102729.81;5055046;28;20465;-70
2024/01/08 08:07:47;;;;;;;1.43;0.30;;;;;;;-5.87;77.78;102735.34;5054527;28;20230;-70
2024/01/08 08:10:13;;;;;;;1.90;0.80;;;;;;;-5.91;77.35;102736.59;5054468;28;20436;-70
2024/01/08 08:12:40;;;;;;;1.40;0.40;;;;;;;-5.83;77.91;102741.19;5054272;28;20260;-70
2024/01/08 08:15:08;;;;;;;1.50;0.40;;;;;;;-5.78;78.27;102743.41;5054372;28;20538;-70
2024/01/08 08:17:35;;;;;;;1.80;0.90;;;;;;;-5.76;78.57;102746.72;5054362;28;20442;-70
2024/01/08 08:20:05;;;;;;;13.13;2.08;;;;;;;-5.77;78.50;102753.00;5054558;28;20533;-70
2024/01/08 08:22:32;;;;;;;1.50;0.45;;;;;;;-5.71;78.57;102760.34;5054268;28;20266;-70
2024/01/08 08:25:00;;;;;;;1.47;0.40;;;;;;;-5.66;79.04;102764.25;5054247;28;20207;-70
2024/01/08 08:27:26;;;;;;;1.60;0.50;;;;;;;-5.58;79.17;102760.88;5054027;28;20478;-69
2024/01/08 08:29:54;;;;;;;1.50;0.50;;;;;;;-5.54;79.57;102772.81;5054310;28;20485;-70
2024/01/08 08:32:21;;;;;;;3.70;1.17;;;;;;;-5.54;79.83;102779.91;5054378;28;20520;-69
2024/01/08 08:34:47;;;;;;;1.80;0.80;;;;;;;-5.51;79.78;102777.00;5054516;28;20541;-68
2024/01/08 08:37:14;;;;;;;6.20;1.07;;;;;;;-5.52;79.23;102780.63;5053778;28;20840;-68
2024/01/08 08:39:41;;;;;;;1.43;0.30;;;;;;;-5.57;78.71;102788.13;5053980;28;20449;-69
2024/01/08 08:42:09;;;;;;;1.50;0.40;;;;;;;-5.59;79.27;102785.63;5054249;28;20501;-68
2024/01/08 08:44:37;;;;;;;3.25;0.77;;;;;;;-5.53;79.77;102795.63;5053775;28;20477;-68
2024/01/08 08:47:04;;;;;;;1.50;0.37;;;;;;;-5.43;80.30;102791.16;5053422;28;20267;-68
2024/01/08 08:49:31;;;;;;;1.40;0.30;;;;;;;-5.42;79.64;102794.63;5054390;28;20438;-67
2024/01/08 08:51:57;;;;;;;1.50;0.30;;;;;;;-5.48;78.62;102790.75;5053652;28;20458;-67
2024/01/08 08:54:24;;;;;;;1.47;0.40;;;;;;;-5.43;79.18;102796.44;5053928;28;20925;-67
2024/01/08 08:56:51;;;;;;;1.50;0.50;;;;;;;-5.35;79.55;102801.88;5052968;28;20481;-67
2024/01/08 08:59:19;;;;;;;1.90;1.03;;;;;;;-5.26;78.92;102791.44;5053657;28;20437;-68
2024/01/08 09:01:49;;;;;;;1.40;0.30;;;;;;;-5.22;78.37;102806.03;5053514;28;20458;-68
2024/01/08 09:04:15;;;;;;;1.40;0.30;;;;;;;-5.20;78.17;102804.06;5053545;28;20536;-67
2024/01/08 09:06:42;;;;;;;1.50;0.40;;;;;;;-5.08;78.31;102810.84;5053332;28;20478;-67
2024/01/08 09:09:11;;;;;;;1.50;0.40;;;;;;;-5.14;77.38;102806.13;5053797;28;20521;-67
2024/01/08 09:11:38;;;;;;;9.13;0.97;;;;;;;-5.02;77.26;102812.91;5053295;28;20980;-68
2024/01/08 09:14:05;;;;;;;1.50;0.40;;;;;;;-4.93;77.89;102809.41;5053756;28;20426;-68
2024/01/08 09:16:33;;;;;;;1.60;0.60;;;;;;;-4.93;76.82;102821.78;5053491;28;20545;-69
2024/01/08 09:19:00;;;;;;;1.50;0.30;;;;;;;-5.01;76.47;102816.38;5053429;28;20449;-70
2024/01/08 09:21:26;;;;;;;1.50;0.40;;;;;;;-4.93;77.53;102817.34;5053329;28;20537;-70
2024/01/08 09:23:53;;;;;;;2.80;1.33;;;;;;;-4.87;77.59;102823.84;5053126;28;20933;-70
2024/01/08 09:26:20;;;;;;;1.70;0.60;;;;;;;-4.80;76.87;102832.88;5052897;28;20933;-67
2024/01/08 09:28:46;;;;;;;1.50;0.40;;;;;;;-4.74;76.66;102834.09;5053547;28;20527;-71
2024/01/08 09:31:13;;;;;;;3.30;0.93;;;;;;;-4.82;76.55;102835.69;5053723;28;20473;-71
2024/01/08 09:33:41;;;;;;;1.50;0.30;;;;;;;-4.79;76.63;102839.00;5053230;28;20851;-71
2024/01/08 09:36:08;;;;;;;1.80;0.73;;;;;;;-4.83;74.61;102847.19;5052956;28;20450;-71
2024/01/08 09:38:35;;;;;;;1.50;0.30;;;;;;;-4.87;74.29;102842.34;5053058;28;20450;-72
2024/01/08 09:41:02;;;;;;;4.17;1.43;;;;;;;-4.89;74.60;102837.22;5052803;28;20882;-72
2024/01/08 09:43:30;;;;;;;1.50;0.40;;;;;;;-4.87;74.18;102855.56;5053307;28;20997;-71
2024/01/08 09:46:06;;;;;;;1.50;0.30;;;;;;;-4.83;75.40;102860.41;5053268;28;20442;-69
2024/01/08 09:48:33;;;;;;;4.03;1.30;;;;;;;-4.86;74.54;102852.81;5053075;28;20497;-69
2024/01/08 09:51:02;;;;;;;1.50;0.40;;;;;;;-4.84;74.74;102856.13;5053012;28;20438;-69
2024/01/08 09:53:30;;;;;;;1.50;0.40;;;;;;;-4.73;75.51;102862.22;5053131;28;20438;-71
2024/01/08 09:55:57;;;;;;;3.00;1.23;;;;;;;-4.66;74.82;102858.00;5053481;28;20849;-69
2024/01/08 09:58:25;;;;;;;3.60;1.33;;;;;;;-4.63;74.02;102852.44;5053100;28;20438;-69
2024/01/08 10:00:52;;;;;;;1.60;0.40;;;;;;;-4.55;74.56;102851.75;5052984;28;20438;-69
2024/01/08 10:03:19;;;;;;;1.73;0.90;;;;;;;-4.54;74.06;102856.88;5053378;28;20477;-69
2024/01/08 10:05:46;;;;;;;1.50;0.30;;;;;;;-4.44;73.92;102862.13;5052962;28;20486;-69
2024/01/08 10:08:14;;;;;;;4.60;1.77;;;;;;;-4.29;73.66;102865.09;5055876;28;20493;-69
2024/01/08 10:10:40;;;;;;;2.40;0.60;;;;;;;-4.23;73.32;102864.53;5056853;28;20517;-70
2024/01/08 10:13:10;;;;;;;1.60;0.50;;;;;;;-4.19;73.13;102855.34;5056632;28;20531;-70
2024/01/08 10:15:37;;;;;;;1.60;0.40;;;;;;;-4.16;72.61;102855.00;5056333;28;20447;-69
2024/01/08 10:18:08;;;;;;;1.70;0.70;;;;;;;-4.16;70.86;102860.31;5056410;28;20457;-70
2024/01/08 10:20:35;;;;;;;1.50;0.40;;;;;;;-4.22;69.66;102852.97;5056303;28;20921;-69
2024/01/08 10:23:05;;;;;;;1.50;0.30;;;;;;;-4.21;70.08;102851.97;5056450;28;20549;-70
2024/01/08 10:25:33;;;;;;;1.50;0.40;;;;;;;-4.17;69.78;102842.78;5056654;28;20431;-69
2024/01/08 10:28:00;;;;;;;1.50;0.40;;;;;;;-4.13;67.99;102837.03;5056471;28;20580;-69
2024/01/08 10:30:27;;;;;;;1.70;0.50;;;;;;;-4.15;67.65;102831.06;5056496;28;20507;-69
2024/01/08 10:32:58;;;;;;;1.57;0.40;;;;;;;-4.08;67.91;102836.59;5056472;28;20557;-69
2024/01/08 10:35:25;;;;;;;2.80;1.40;;;;;;;-3.96;68.37;102834.59;5056710;28;20844;-68
2024/01/08 10:37:54;;;;;;;1.57;0.40;;;;;;;-4.06;66.88;102838.13;5056103;28;20446;-67
2024/01/08 10:40:21;;;;;;;1.50;0.40;;;;;;;-4.04;66.08;102843.25;5056742;28;20438;-68
2024/01/08 10:42:49;;;;;;;1.60;0.43;;;;;;;-4.03;65.87;102842.25;5055796;28;20981;-68
2024/01/08 10:45:16;;;;;;;1.50;0.30;;;;;;;-3.98;66.98;102840.03;5056103;28;20517;-69
2024/01/08 10:47:50;;;;;;;1.50;0.30;;;;;;;-3.89;66.90;102847.06;5056084;28;20520;-69
2024/01/08 10:50:19;;;;;;;1.70;0.67;;;;;;;-3.85;65.62;102843.16;5055864;28;20422;-69
2024/01/08 10:52:52;;;;;;;3.00;0.93;;;;;;;-3.82;64.44;102845.47;5055968;28;20480;-69
2024/01/08 10:55:21;;;;;;;1.50;0.30;;;;;;;-3.75;64.55;102839.59;5056072;28;20457;-69
2024/01/08 10:57:56;;;;;;;1.60;0.40;;;;;;;-3.77;64.13;102850.31;5055954;28;20525;-69
2024/01/08 11:00:23;;;;;;;1.50;0.30;;;;;;;-3.73;65.21;102848.22;5056254;28;20422;-69
2024/01/08 11:02:50;;;;;;;1.53;0.40;;;;;;;-3.63;65.60;102844.53;5056043;28;20871;-69
2024/01/08 11:05:20;;;;;;;2.73;1.00;;;;;;;-3.49;64.95;102837.03;5056297;28;20466;-70
2024/01/08 11:07:49;;;;;;;1.60;0.50;;;;;;;-3.40;64.51;102847.53;5056199;28;20555;-70
2024/01/08 11:10:17;;;;;;;2.57;1.23;;;;;;;-3.32;63.66;102844.97;5055941;28;20448;-70
2024/01/08 11:12:55;;;;;;;1.70;0.60;;;;;;;-3.24;63.84;102838.06;5056147;28;20564;-70
2024/01/08 11:15:24;;;;;;;2.23;0.80;;;;;;;-3.14;63.99;102844.09;5055606;28;20422;-70
2024/01/08 11:17:52;;;;;;;1.63;0.57;;;;;;;-3.10;62.86;102842.78;5055723;28;20873;-69
2024/01/08 11:20:45;;;;;;;1.70;0.67;;;;;;;-2.99;62.31;102845.19;5054704;28;21020;-69
2024/01/08 11:23:34;;;;;;;1.60;0.40;;;;;;;-3.01;60.24;102841.03;5055505;28;20462;-70
2024/01/08 11:26:02;;;;;;;1.50;0.30;;;;;;;-2.96;59.82;102839.59;5055840;28;20525;-70